sensor_id;sensor_type;location;lat;lon;timestamp;temperature;humidity
2042;DHT22;1026;51.460;7.252;2023-06-19T00:00:11;25.40;55.00
2042;DHT22;1026;51.460;7.252;2023-06-19T00:02:41;25.40;55.00
2042;DHT22;1026;51.460;7.252;2023-06-19T00:05:08;25.40;55.10
2042;DHT22;1026;51.460;7.252;2023-06-19T00:07:36;25.40;55.10
2042;DHT22;1026;51.460;7.252;2023-06-19T00:10:02;25.40;55.10
2042;DHT22;1026;51.460;7.252;2023-06-19T00:12:27;25.40;55.20
2042;DHT22;1026;51.460;7.252;2023-06-19T00:14:53;25.30;55.10
2042;DHT22;1026;51.460;7.252;2023-06-19T00:17:19;25.30;55.20
2042;DHT22;1026;51.460;7.252;2023-06-19T00:19:44;25.30;55.30
2042;DHT22;1026;51.460;7.252;2023-06-19T00:22:10;25.30;55.30
2042;DHT22;1026;51.460;7.252;2023-06-19T00:24:36;25.30;55.30
2042;DHT22;1026;51.460;7.252;2023-06-19T00:27:01;25.30;55.40
2042;DHT22;1026;51.460;7.252;2023-06-19T00:29:29;25.20;55.40
2042;DHT22;1026;51.460;7.252;2023-06-19T00:31:55;25.20;55.40
2042;DHT22;1026;51.460;7.252;2023-06-19T00:34:20;25.20;55.50
2042;DHT22;1026;51.460;7.252;2023-06-19T00:36:47;25.20;55.50
2042;DHT22;1026;51.460;7.252;2023-06-19T00:39:13;25.20;55.50
2042;DHT22;1026;51.460;7.252;2023-06-19T00:41:39;25.10;55.50
2042;DHT22;1026;51.460;7.252;2023-06-19T00:44:06;25.20;55.70
2042;DHT22;1026;51.460;7.252;2023-06-19T00:46:32;25.20;55.70
2042;DHT22;1026;51.460;7.252;2023-06-19T00:48:57;25.10;55.70
2042;DHT22;1026;51.460;7.252;2023-06-19T00:51:23;25.10;55.70
2042;DHT22;1026;51.460;7.252;2023-06-19T00:53:49;25.10;55.80
2042;DHT22;1026;51.460;7.252;2023-06-19T00:56:15;25.10;55.80
2042;DHT22;1026;51.460;7.252;2023-06-19T00:58:43;25.10;55.80
2042;DHT22;1026;51.460;7.252;2023-06-19T01:01:09;25.00;55.80
2042;DHT22;1026;51.460;7.252;2023-06-19T01:03:36;25.00;55.90
2042;DHT22;1026;51.460;7.252;2023-06-19T01:06:02;25.00;55.90
2042;DHT22;1026;51.460;7.252;2023-06-19T01:08:43;25.00;55.90
2042;DHT22;1026;51.460;7.252;2023-06-19T01:11:17;25.00;56.00
2042;DHT22;1026;51.460;7.252;2023-06-19T01:13:50;25.00;56.00
2042;DHT22;1026;51.460;7.252;2023-06-19T01:16:19;25.00;56.00
2042;DHT22;1026;51.460;7.252;2023-06-19T01:18:46;25.00;56.10
2042;DHT22;1026;51.460;7.252;2023-06-19T01:21:15;24.90;56.00
2042;DHT22;1026;51.460;7.252;2023-06-19T01:23:42;24.90;56.10
2042;DHT22;1026;51.460;7.252;2023-06-19T01:26:08;24.90;56.20
2042;DHT22;1026;51.460;7.252;2023-06-19T01:28:35;24.90;56.30
2042;DHT22;1026;51.460;7.252;2023-06-19T01:31:05;24.80;56.20
2042;DHT22;1026;51.460;7.252;2023-06-19T01:33:32;24.80;56.30
2042;DHT22;1026;51.460;7.252;2023-06-19T01:35:58;24.80;56.30
2042;DHT22;1026;51.460;7.252;2023-06-19T01:38:28;24.80;56.40
2042;DHT22;1026;51.460;7.252;2023-06-19T01:40:55;24.80;56.40
2042;DHT22;1026;51.460;7.252;2023-06-19T01:43:23;24.80;56.40
2042;DHT22;1026;51.460;7.252;2023-06-19T01:45:49;24.80;56.50
2042;DHT22;1026;51.460;7.252;2023-06-19T01:48:21;24.80;56.50
2042;DHT22;1026;51.460;7.252;2023-06-19T01:50:48;24.70;56.60
2042;DHT22;1026;51.460;7.252;2023-06-19T01:53:14;24.70;56.60
2042;DHT22;1026;51.460;7.252;2023-06-19T01:55:40;24.70;56.60
2042;DHT22;1026;51.460;7.252;2023-06-19T01:58:06;24.70;56.70
2042;DHT22;1026;51.460;7.252;2023-06-19T02:00:32;24.70;56.70
2042;DHT22;1026;51.460;7.252;2023-06-19T02:03:01;24.70;56.70
2042;DHT22;1026;51.460;7.252;2023-06-19T02:05:27;24.70;56.70
2042;DHT22;1026;51.460;7.252;2023-06-19T02:07:52;24.60;56.70
2042;DHT22;1026;51.460;7.252;2023-06-19T02:10:18;24.60;56.70
2042;DHT22;1026;51.460;7.252;2023-06-19T02:12:44;24.60;56.80
2042;DHT22;1026;51.460;7.252;2023-06-19T02:15:10;24.60;56.80
2042;DHT22;1026;51.460;7.252;2023-06-19T02:17:35;24.60;56.90
2042;DHT22;1026;51.460;7.252;2023-06-19T02:20:01;24.60;56.90
2042;DHT22;1026;51.460;7.252;2023-06-19T02:22:27;24.50;56.80
2042;DHT22;1026;51.460;7.252;2023-06-19T02:24:52;24.50;56.90
2042;DHT22;1026;51.460;7.252;2023-06-19T02:27:18;24.50;56.90
2042;DHT22;1026;51.460;7.252;2023-06-19T02:29:44;24.50;57.00
2042;DHT22;1026;51.460;7.252;2023-06-19T02:32:09;24.50;57.10
2042;DHT22;1026;51.460;7.252;2023-06-19T02:34:36;24.50;57.10
2042;DHT22;1026;51.460;7.252;2023-06-19T02:37:01;24.50;57.20
2042;DHT22;1026;51.460;7.252;2023-06-19T02:39:27;24.40;57.30
2042;DHT22;1026;51.460;7.252;2023-06-19T02:41:53;24.40;57.20
2042;DHT22;1026;51.460;7.252;2023-06-19T02:44:18;24.40;57.20
2042;DHT22;1026;51.460;7.252;2023-06-19T02:46:44;24.40;57.40
2042;DHT22;1026;51.460;7.252;2023-06-19T02:49:09;24.40;57.40
2042;DHT22;1026;51.460;7.252;2023-06-19T02:51:35;24.40;58.00
2042;DHT22;1026;51.460;7.252;2023-06-19T02:54:01;24.40;57.50
2042;DHT22;1026;51.460;7.252;2023-06-19T02:56:26;24.30;57.40
2042;DHT22;1026;51.460;7.252;2023-06-19T02:58:54;24.30;57.50
2042;DHT22;1026;51.460;7.252;2023-06-19T03:01:19;24.30;57.50
2042;DHT22;1026;51.460;7.252;2023-06-19T03:03:45;24.30;57.60
2042;DHT22;1026;51.460;7.252;2023-06-19T03:06:12;24.30;57.60
2042;DHT22;1026;51.460;7.252;2023-06-19T03:08:39;24.30;57.70
2042;DHT22;1026;51.460;7.252;2023-06-19T03:11:05;24.30;57.80
2042;DHT22;1026;51.460;7.252;2023-06-19T03:13:44;24.20;58.20
2042;DHT22;1026;51.460;7.252;2023-06-19T03:16:11;24.20;57.70
2042;DHT22;1026;51.460;7.252;2023-06-19T03:18:36;24.20;57.70
2042;DHT22;1026;51.460;7.252;2023-06-19T03:21:02;24.20;57.90
2042;DHT22;1026;51.460;7.252;2023-06-19T03:23:28;24.10;58.00
2042;DHT22;1026;51.460;7.252;2023-06-19T03:25:53;24.10;58.10
2042;DHT22;1026;51.460;7.252;2023-06-19T03:28:19;24.10;58.10
2042;DHT22;1026;51.460;7.252;2023-06-19T03:30:45;24.20;58.10
2042;DHT22;1026;51.460;7.252;2023-06-19T03:33:11;24.10;58.20
2042;DHT22;1026;51.460;7.252;2023-06-19T03:35:36;24.10;58.10
2042;DHT22;1026;51.460;7.252;2023-06-19T03:38:02;24.10;58.10
2042;DHT22;1026;51.460;7.252;2023-06-19T03:40:27;24.10;58.40
2042;DHT22;1026;51.460;7.252;2023-06-19T03:42:54;24.10;58.40
2042;DHT22;1026;51.460;7.252;2023-06-19T03:45:20;24.10;58.50
2042;DHT22;1026;51.460;7.252;2023-06-19T03:47:45;24.10;58.60
2042;DHT22;1026;51.460;7.252;2023-06-19T03:50:11;24.00;58.40
2042;DHT22;1026;51.460;7.252;2023-06-19T03:52:37;24.00;58.70
2042;DHT22;1026;51.460;7.252;2023-06-19T03:55:03;24.00;58.70
2042;DHT22;1026;51.460;7.252;2023-06-19T03:57:29;24.00;58.70
2042;DHT22;1026;51.460;7.252;2023-06-19T03:59:55;24.00;58.90
2042;DHT22;1026;51.460;7.252;2023-06-19T04:02:21;24.00;58.70
2042;DHT22;1026;51.460;7.252;2023-06-19T04:04:47;24.00;58.80
2042;DHT22;1026;51.460;7.252;2023-06-19T04:07:13;24.00;59.00
2042;DHT22;1026;51.460;7.252;2023-06-19T04:09:39;23.90;58.80
2042;DHT22;1026;51.460;7.252;2023-06-19T04:12:05;23.90;58.80
2042;DHT22;1026;51.460;7.252;2023-06-19T04:14:31;23.90;58.90
2042;DHT22;1026;51.460;7.252;2023-06-19T04:16:57;23.90;58.70
2042;DHT22;1026;51.460;7.252;2023-06-19T04:19:22;23.90;58.70
2042;DHT22;1026;51.460;7.252;2023-06-19T04:21:48;23.90;59.10
2042;DHT22;1026;51.460;7.252;2023-06-19T04:24:14;23.90;59.20
2042;DHT22;1026;51.460;7.252;2023-06-19T04:26:39;23.80;59.20
2042;DHT22;1026;51.460;7.252;2023-06-19T04:29:06;23.80;59.40
2042;DHT22;1026;51.460;7.252;2023-06-19T04:31:32;23.80;59.50
2042;DHT22;1026;51.460;7.252;2023-06-19T04:33:58;23.80;59.60
2042;DHT22;1026;51.460;7.252;2023-06-19T04:36:24;23.80;59.40
2042;DHT22;1026;51.460;7.252;2023-06-19T04:38:49;23.80;59.80
2042;DHT22;1026;51.460;7.252;2023-06-19T04:41:17;23.80;59.60
2042;DHT22;1026;51.460;7.252;2023-06-19T04:43:42;23.70;59.10
2042;DHT22;1026;51.460;7.252;2023-06-19T04:46:08;23.70;59.40
2042;DHT22;1026;51.460;7.252;2023-06-19T04:48:37;23.60;59.20
2042;DHT22;1026;51.460;7.252;2023-06-19T04:51:05;23.70;59.40
2042;DHT22;1026;51.460;7.252;2023-06-19T04:53:30;23.70;59.30
2042;DHT22;1026;51.460;7.252;2023-06-19T04:56:01;23.70;59.30
2042;DHT22;1026;51.460;7.252;2023-06-19T04:58:26;23.70;59.70
2042;DHT22;1026;51.460;7.252;2023-06-19T05:00:52;23.70;59.60
2042;DHT22;1026;51.460;7.252;2023-06-19T05:03:19;23.60;59.60
2042;DHT22;1026;51.460;7.252;2023-06-19T05:05:47;23.60;59.90
2042;DHT22;1026;51.460;7.252;2023-06-19T05:08:12;23.60;60.00
2042;DHT22;1026;51.460;7.252;2023-06-19T05:10:38;23.60;60.10
2042;DHT22;1026;51.460;7.252;2023-06-19T05:13:04;23.60;60.20
2042;DHT22;1026;51.460;7.252;2023-06-19T05:15:30;23.60;60.20
2042;DHT22;1026;51.460;7.252;2023-06-19T05:17:55;23.60;60.10
2042;DHT22;1026;51.460;7.252;2023-06-19T05:20:21;23.60;59.70
2042;DHT22;1026;51.460;7.252;2023-06-19T05:22:46;23.60;60.10
2042;DHT22;1026;51.460;7.252;2023-06-19T05:25:12;23.60;61.60
2042;DHT22;1026;51.460;7.252;2023-06-19T05:27:38;23.60;60.30
2042;DHT22;1026;51.460;7.252;2023-06-19T05:30:04;23.50;60.40
2042;DHT22;1026;51.460;7.252;2023-06-19T05:32:31;23.50;60.30
2042;DHT22;1026;51.460;7.252;2023-06-19T05:34:56;23.50;60.00
2042;DHT22;1026;51.460;7.252;2023-06-19T05:37:22;23.50;60.20
2042;DHT22;1026;51.460;7.252;2023-06-19T05:39:48;23.50;60.30
2042;DHT22;1026;51.460;7.252;2023-06-19T05:42:14;23.50;60.30
2042;DHT22;1026;51.460;7.252;2023-06-19T05:44:40;23.50;60.20
2042;DHT22;1026;51.460;7.252;2023-06-19T05:47:12;23.50;60.20
2042;DHT22;1026;51.460;7.252;2023-06-19T05:49:38;23.50;60.50
2042;DHT22;1026;51.460;7.252;2023-06-19T05:52:06;23.50;60.80
2042;DHT22;1026;51.460;7.252;2023-06-19T05:54:32;23.50;61.10
2042;DHT22;1026;51.460;7.252;2023-06-19T05:56:58;23.50;60.40
2042;DHT22;1026;51.460;7.252;2023-06-19T05:59:23;23.50;61.10
2042;DHT22;1026;51.460;7.252;2023-06-19T06:01:49;23.50;60.50
2042;DHT22;1026;51.460;7.252;2023-06-19T06:04:16;23.50;60.40
2042;DHT22;1026;51.460;7.252;2023-06-19T06:06:42;23.50;60.70
2042;DHT22;1026;51.460;7.252;2023-06-19T06:09:08;23.50;61.20
2042;DHT22;1026;51.460;7.252;2023-06-19T06:11:37;23.10;69.70
2042;DHT22;1026;51.460;7.252;2023-06-19T06:14:03;23.00;69.40
2042;DHT22;1026;51.460;7.252;2023-06-19T06:16:29;23.10;67.70
2042;DHT22;1026;51.460;7.252;2023-06-19T06:18:54;23.20;66.90
2042;DHT22;1026;51.460;7.252;2023-06-19T06:21:20;23.30;66.20
2042;DHT22;1026;51.460;7.252;2023-06-19T06:23:45;23.40;66.00
2042;DHT22;1026;51.460;7.252;2023-06-19T06:26:13;23.40;65.20
2042;DHT22;1026;51.460;7.252;2023-06-19T06:28:59;23.50;65.30
2042;DHT22;1026;51.460;7.252;2023-06-19T06:31:24;23.50;65.20
2042;DHT22;1026;51.460;7.252;2023-06-19T06:36:55;23.50;64.70
2042;DHT22;1026;51.460;7.252;2023-06-19T06:39:21;23.50;64.60
2042;DHT22;1026;51.460;7.252;2023-06-19T06:41:47;23.50;64.40
2042;DHT22;1026;51.460;7.252;2023-06-19T06:44:12;23.40;64.40
2042;DHT22;1026;51.460;7.252;2023-06-19T06:46:38;23.50;64.30
2042;DHT22;1026;51.460;7.252;2023-06-19T06:49:04;23.50;64.20
2042;DHT22;1026;51.460;7.252;2023-06-19T06:51:29;23.50;64.00
2042;DHT22;1026;51.460;7.252;2023-06-19T06:53:55;23.50;64.40
2042;DHT22;1026;51.460;7.252;2023-06-19T06:56:21;23.50;64.30
2042;DHT22;1026;51.460;7.252;2023-06-19T06:58:46;23.50;64.30
2042;DHT22;1026;51.460;7.252;2023-06-19T07:01:12;23.50;64.40
2042;DHT22;1026;51.460;7.252;2023-06-19T07:03:38;23.50;64.20
2042;DHT22;1026;51.460;7.252;2023-06-19T07:06:05;23.50;64.40
2042;DHT22;1026;51.460;7.252;2023-06-19T07:08:30;23.50;64.10
2042;DHT22;1026;51.460;7.252;2023-06-19T07:10:56;23.50;64.10
2042;DHT22;1026;51.460;7.252;2023-06-19T07:13:22;23.50;64.20
2042;DHT22;1026;51.460;7.252;2023-06-19T07:15:48;23.60;64.10
2042;DHT22;1026;51.460;7.252;2023-06-19T07:18:13;23.60;64.30
2042;DHT22;1026;51.460;7.252;2023-06-19T07:20:39;23.60;63.90
2042;DHT22;1026;51.460;7.252;2023-06-19T07:23:05;23.60;63.90
2042;DHT22;1026;51.460;7.252;2023-06-19T07:25:30;23.60;64.30
2042;DHT22;1026;51.460;7.252;2023-06-19T07:27:59;23.60;64.10
2042;DHT22;1026;51.460;7.252;2023-06-19T07:30:25;23.60;64.10
2042;DHT22;1026;51.460;7.252;2023-06-19T07:32:51;23.60;64.20
2042;DHT22;1026;51.460;7.252;2023-06-19T07:35:17;23.60;64.20
2042;DHT22;1026;51.460;7.252;2023-06-19T07:37:44;23.60;64.20
2042;DHT22;1026;51.460;7.252;2023-06-19T07:40:10;23.50;66.10
2042;DHT22;1026;51.460;7.252;2023-06-19T07:42:36;23.10;70.00
2042;DHT22;1026;51.460;7.252;2023-06-19T07:45:02;23.20;69.00
2042;DHT22;1026;51.460;7.252;2023-06-19T07:47:28;23.40;67.90
2042;DHT22;1026;51.460;7.252;2023-06-19T07:49:54;23.50;67.20
2042;DHT22;1026;51.460;7.252;2023-06-19T07:52:20;23.60;67.10
2042;DHT22;1026;51.460;7.252;2023-06-19T07:54:55;23.60;66.90
2042;DHT22;1026;51.460;7.252;2023-06-19T07:57:22;23.60;67.00
2042;DHT22;1026;51.460;7.252;2023-06-19T07:59:49;23.60;66.30
2042;DHT22;1026;51.460;7.252;2023-06-19T08:02:15;23.60;66.50
2042;DHT22;1026;51.460;7.252;2023-06-19T08:04:41;23.60;66.10
2042;DHT22;1026;51.460;7.252;2023-06-19T08:07:07;23.70;66.20
2042;DHT22;1026;51.460;7.252;2023-06-19T08:09:33;23.60;65.90
2042;DHT22;1026;51.460;7.252;2023-06-19T08:11:58;23.60;66.50
2042;DHT22;1026;51.460;7.252;2023-06-19T08:14:44;23.70;66.20
2042;DHT22;1026;51.460;7.252;2023-06-19T08:17:09;23.60;65.90
2042;DHT22;1026;51.460;7.252;2023-06-19T08:19:35;23.60;65.30
2042;DHT22;1026;51.460;7.252;2023-06-19T08:22:01;23.70;65.80
2042;DHT22;1026;51.460;7.252;2023-06-19T08:24:28;23.70;65.60
2042;DHT22;1026;51.460;7.252;2023-06-19T08:26:54;23.70;65.70
2042;DHT22;1026;51.460;7.252;2023-06-19T08:29:19;23.70;66.00
2042;DHT22;1026;51.460;7.252;2023-06-19T08:31:45;23.70;65.30
2042;DHT22;1026;51.460;7.252;2023-06-19T08:34:11;23.70;65.00
2042;DHT22;1026;51.460;7.252;2023-06-19T08:36:36;23.70;64.70
2042;DHT22;1026;51.460;7.252;2023-06-19T08:39:02;23.70;65.30
2042;DHT22;1026;51.460;7.252;2023-06-19T08:41:28;23.70;65.30
2042;DHT22;1026;51.460;7.252;2023-06-19T08:43:54;23.70;66.00
2042;DHT22;1026;51.460;7.252;2023-06-19T08:46:20;23.70;66.30
2042;DHT22;1026;51.460;7.252;2023-06-19T08:48:46;23.70;65.40
2042;DHT22;1026;51.460;7.252;2023-06-19T08:51:12;23.70;65.00
2042;DHT22;1026;51.460;7.252;2023-06-19T08:53:49;23.70;65.20
2042;DHT22;1026;51.460;7.252;2023-06-19T08:56:22;23.70;65.30
2042;DHT22;1026;51.460;7.252;2023-06-19T08:58:47;23.70;65.80
2042;DHT22;1026;51.460;7.252;2023-06-19T09:01:17;23.80;65.70
2042;DHT22;1026;51.460;7.252;2023-06-19T09:03:43;23.70;65.70
2042;DHT22;1026;51.460;7.252;2023-06-19T09:06:15;23.80;66.20
2042;DHT22;1026;51.460;7.252;2023-06-19T09:08:41;23.80;65.20
2042;DHT22;1026;51.460;7.252;2023-06-19T09:11:07;23.80;65.50
2042;DHT22;1026;51.460;7.252;2023-06-19T09:13:33;23.80;65.70
2042;DHT22;1026;51.460;7.252;2023-06-19T09:16:00;23.80;65.70
2042;DHT22;1026;51.460;7.252;2023-06-19T09:18:28;23.80;65.40
2042;DHT22;1026;51.460;7.252;2023-06-19T09:20:54;23.80;65.30
2042;DHT22;1026;51.460;7.252;2023-06-19T09:23:20;23.90;65.80
2042;DHT22;1026;51.460;7.252;2023-06-19T09:25:47;23.90;65.40
2042;DHT22;1026;51.460;7.252;2023-06-19T09:30:59;23.90;65.70
2042;DHT22;1026;51.460;7.252;2023-06-19T09:33:27;24.00;65.90
2042;DHT22;1026;51.460;7.252;2023-06-19T09:35:55;24.00;66.30
2042;DHT22;1026;51.460;7.252;2023-06-19T09:38:24;24.00;65.70
2042;DHT22;1026;51.460;7.252;2023-06-19T09:40:52;24.00;65.80
2042;DHT22;1026;51.460;7.252;2023-06-19T09:43:23;24.00;65.80
2042;DHT22;1026;51.460;7.252;2023-06-19T09:45:49;24.00;66.00
2042;DHT22;1026;51.460;7.252;2023-06-19T09:48:19;24.00;65.60
2042;DHT22;1026;51.460;7.252;2023-06-19T09:50:50;24.10;65.80
2042;DHT22;1026;51.460;7.252;2023-06-19T09:53:18;24.10;65.80
2042;DHT22;1026;51.460;7.252;2023-06-19T09:55:47;24.10;65.80
2042;DHT22;1026;51.460;7.252;2023-06-19T09:58:13;24.10;65.60
2042;DHT22;1026;51.460;7.252;2023-06-19T10:00:39;24.10;65.80
2042;DHT22;1026;51.460;7.252;2023-06-19T10:03:12;24.10;65.30
2042;DHT22;1026;51.460;7.252;2023-06-19T10:05:38;24.20;65.30
2042;DHT22;1026;51.460;7.252;2023-06-19T10:08:04;24.20;65.30
2042;DHT22;1026;51.460;7.252;2023-06-19T10:10:30;24.30;65.70
2042;DHT22;1026;51.460;7.252;2023-06-19T10:12:58;24.20;65.30
2042;DHT22;1026;51.460;7.252;2023-06-19T10:15:27;24.30;65.60
2042;DHT22;1026;51.460;7.252;2023-06-19T10:17:59;24.30;65.20
2042;DHT22;1026;51.460;7.252;2023-06-19T10:20:29;24.40;65.40
2042;DHT22;1026;51.460;7.252;2023-06-19T10:23:00;24.40;65.10
2042;DHT22;1026;51.460;7.252;2023-06-19T10:25:29;24.50;65.30
2042;DHT22;1026;51.460;7.252;2023-06-19T10:27:55;24.50;65.20
2042;DHT22;1026;51.460;7.252;2023-06-19T10:30:21;24.50;65.30
2042;DHT22;1026;51.460;7.252;2023-06-19T10:32:47;24.50;65.10
2042;DHT22;1026;51.460;7.252;2023-06-19T10:35:14;24.50;65.00
2042;DHT22;1026;51.460;7.252;2023-06-19T10:37:41;24.60;64.90
2042;DHT22;1026;51.460;7.252;2023-06-19T10:40:08;24.60;64.70
2042;DHT22;1026;51.460;7.252;2023-06-19T10:42:36;24.60;65.50
2042;DHT22;1026;51.460;7.252;2023-06-19T10:45:04;24.60;64.90
2042;DHT22;1026;51.460;7.252;2023-06-19T10:47:32;24.70;64.70
2042;DHT22;1026;51.460;7.252;2023-06-19T10:49:58;24.70;64.80
2042;DHT22;1026;51.460;7.252;2023-06-19T10:52:24;24.70;64.40
2042;DHT22;1026;51.460;7.252;2023-06-19T10:54:57;24.80;64.70
2042;DHT22;1026;51.460;7.252;2023-06-19T10:57:27;24.80;64.40
2042;DHT22;1026;51.460;7.252;2023-06-19T10:59:53;24.80;64.50
2042;DHT22;1026;51.460;7.252;2023-06-19T11:02:19;24.80;64.50
2042;DHT22;1026;51.460;7.252;2023-06-19T11:04:45;24.90;64.30
2042;DHT22;1026;51.460;7.252;2023-06-19T11:07:10;24.90;64.30
2042;DHT22;1026;51.460;7.252;2023-06-19T11:09:36;24.90;64.10
2042;DHT22;1026;51.460;7.252;2023-06-19T11:12:02;25.00;64.00
2042;DHT22;1026;51.460;7.252;2023-06-19T11:14:29;25.00;64.00
2042;DHT22;1026;51.460;7.252;2023-06-19T11:16:55;25.00;63.70
2042;DHT22;1026;51.460;7.252;2023-06-19T11:19:22;25.00;64.00
2042;DHT22;1026;51.460;7.252;2023-06-19T11:21:50;25.00;64.10
2042;DHT22;1026;51.460;7.252;2023-06-19T11:24:16;25.10;64.10
2042;DHT22;1026;51.460;7.252;2023-06-19T11:26:48;25.10;63.70
2042;DHT22;1026;51.460;7.252;2023-06-19T11:29:16;25.20;63.80
2042;DHT22;1026;51.460;7.252;2023-06-19T11:31:42;25.20;63.60
2042;DHT22;1026;51.460;7.252;2023-06-19T11:34:08;25.20;63.70
2042;DHT22;1026;51.460;7.252;2023-06-19T11:36:37;25.20;63.10
2042;DHT22;1026;51.460;7.252;2023-06-19T11:39:03;25.30;63.00
2042;DHT22;1026;51.460;7.252;2023-06-19T11:41:30;25.30;62.90
2042;DHT22;1026;51.460;7.252;2023-06-19T11:44:00;25.30;62.70
2042;DHT22;1026;51.460;7.252;2023-06-19T11:46:30;25.40;63.10
2042;DHT22;1026;51.460;7.252;2023-06-19T11:49:07;25.40;62.90
2042;DHT22;1026;51.460;7.252;2023-06-19T11:51:33;25.40;62.50
2042;DHT22;1026;51.460;7.252;2023-06-19T11:53:59;25.50;62.30
2042;DHT22;1026;51.460;7.252;2023-06-19T11:56:24;25.50;62.30
2042;DHT22;1026;51.460;7.252;2023-06-19T11:58:50;25.60;62.20
2042;DHT22;1026;51.460;7.252;2023-06-19T12:01:16;25.60;62.30
2042;DHT22;1026;51.460;7.252;2023-06-19T12:03:41;25.60;62.10
2042;DHT22;1026;51.460;7.252;2023-06-19T12:06:07;25.70;61.80
2042;DHT22;1026;51.460;7.252;2023-06-19T12:08:33;25.70;61.80
2042;DHT22;1026;51.460;7.252;2023-06-19T12:10:59;25.70;61.70
2042;DHT22;1026;51.460;7.252;2023-06-19T12:13:24;25.70;61.80
2042;DHT22;1026;51.460;7.252;2023-06-19T12:15:50;25.80;61.90
2042;DHT22;1026;51.460;7.252;2023-06-19T12:18:15;25.80;61.50
2042;DHT22;1026;51.460;7.252;2023-06-19T12:20:41;25.80;61.40
2042;DHT22;1026;51.460;7.252;2023-06-19T12:23:07;25.80;61.20
2042;DHT22;1026;51.460;7.252;2023-06-19T12:25:32;25.90;61.10
2042;DHT22;1026;51.460;7.252;2023-06-19T12:27:58;26.00;60.60
2042;DHT22;1026;51.460;7.252;2023-06-19T12:30:23;26.00;60.50
2042;DHT22;1026;51.460;7.252;2023-06-19T12:32:50;26.10;60.30
2042;DHT22;1026;51.460;7.252;2023-06-19T12:35:16;26.10;60.20
2042;DHT22;1026;51.460;7.252;2023-06-19T12:37:42;26.20;60.20
2042;DHT22;1026;51.460;7.252;2023-06-19T12:40:08;26.20;60.20
2042;DHT22;1026;51.460;7.252;2023-06-19T12:42:36;26.20;59.70
2042;DHT22;1026;51.460;7.252;2023-06-19T12:45:03;26.20;59.50
2042;DHT22;1026;51.460;7.252;2023-06-19T12:47:29;26.30;59.40
2042;DHT22;1026;51.460;7.252;2023-06-19T12:49:54;26.30;59.50
2042;DHT22;1026;51.460;7.252;2023-06-19T12:52:20;26.40;59.70
2042;DHT22;1026;51.460;7.252;2023-06-19T12:54:46;26.40;59.80
2042;DHT22;1026;51.460;7.252;2023-06-19T12:57:11;26.50;59.80
2042;DHT22;1026;51.460;7.252;2023-06-19T12:59:37;26.50;59.50
2042;DHT22;1026;51.460;7.252;2023-06-19T13:02:03;26.60;59.30
2042;DHT22;1026;51.460;7.252;2023-06-19T13:04:29;26.70;59.40
2042;DHT22;1026;51.460;7.252;2023-06-19T13:06:54;26.70;58.20
2042;DHT22;1026;51.460;7.252;2023-06-19T13:09:20;26.60;57.00
2042;DHT22;1026;51.460;7.252;2023-06-19T13:11:45;26.30;56.50
2042;DHT22;1026;51.460;7.252;2023-06-19T13:14:11;26.20;56.30
2042;DHT22;1026;51.460;7.252;2023-06-19T13:16:37;26.20;56.80
2042;DHT22;1026;51.460;7.252;2023-06-19T13:19:02;26.20;56.70
2042;DHT22;1026;51.460;7.252;2023-06-19T13:21:28;26.30;57.00
2042;DHT22;1026;51.460;7.252;2023-06-19T13:23:54;26.40;56.40
2042;DHT22;1026;51.460;7.252;2023-06-19T13:26:20;26.50;56.80
2042;DHT22;1026;51.460;7.252;2023-06-19T13:28:45;26.60;56.50
2042;DHT22;1026;51.460;7.252;2023-06-19T13:31:11;26.90;55.90
2042;DHT22;1026;51.460;7.252;2023-06-19T13:33:37;27.00;55.20
2042;DHT22;1026;51.460;7.252;2023-06-19T13:36:03;27.20;55.80
2042;DHT22;1026;51.460;7.252;2023-06-19T13:38:29;27.30;55.40
2042;DHT22;1026;51.460;7.252;2023-06-19T13:40:54;27.30;55.60
2042;DHT22;1026;51.460;7.252;2023-06-19T13:43:20;27.30;55.90
2042;DHT22;1026;51.460;7.252;2023-06-19T13:45:48;27.30;56.00
2042;DHT22;1026;51.460;7.252;2023-06-19T13:48:14;27.40;55.80
2042;DHT22;1026;51.460;7.252;2023-06-19T13:50:40;27.40;56.00
2042;DHT22;1026;51.460;7.252;2023-06-19T13:53:05;27.40;56.00
2042;DHT22;1026;51.460;7.252;2023-06-19T13:55:32;27.50;56.00
2042;DHT22;1026;51.460;7.252;2023-06-19T13:57:57;27.50;56.00
2042;DHT22;1026;51.460;7.252;2023-06-19T14:00:23;27.50;55.90
2042;DHT22;1026;51.460;7.252;2023-06-19T14:02:48;27.60;55.90
2042;DHT22;1026;51.460;7.252;2023-06-19T14:05:15;27.60;55.80
2042;DHT22;1026;51.460;7.252;2023-06-19T14:07:42;27.70;55.70
2042;DHT22;1026;51.460;7.252;2023-06-19T14:10:09;27.70;55.60
2042;DHT22;1026;51.460;7.252;2023-06-19T14:12:34;27.80;55.90
2042;DHT22;1026;51.460;7.252;2023-06-19T14:15:00;27.80;55.90
2042;DHT22;1026;51.460;7.252;2023-06-19T14:17:26;27.80;55.90
2042;DHT22;1026;51.460;7.252;2023-06-19T14:19:52;27.90;55.80
2042;DHT22;1026;51.460;7.252;2023-06-19T14:22:17;27.90;55.70
2042;DHT22;1026;51.460;7.252;2023-06-19T14:24:44;28.00;55.70
2042;DHT22;1026;51.460;7.252;2023-06-19T14:27:09;28.00;55.40
2042;DHT22;1026;51.460;7.252;2023-06-19T14:29:35;28.10;55.60
2042;DHT22;1026;51.460;7.252;2023-06-19T14:32:01;28.10;55.20
2042;DHT22;1026;51.460;7.252;2023-06-19T14:34:28;28.10;55.40
2042;DHT22;1026;51.460;7.252;2023-06-19T14:36:54;28.20;54.70
2042;DHT22;1026;51.460;7.252;2023-06-19T14:39:20;28.20;54.70
2042;DHT22;1026;51.460;7.252;2023-06-19T14:41:45;28.20;54.50
2042;DHT22;1026;51.460;7.252;2023-06-19T14:44:11;28.30;55.20
2042;DHT22;1026;51.460;7.252;2023-06-19T14:46:36;28.30;54.70
2042;DHT22;1026;51.460;7.252;2023-06-19T14:49:06;28.30;54.90
2042;DHT22;1026;51.460;7.252;2023-06-19T14:51:31;28.40;54.10
2042;DHT22;1026;51.460;7.252;2023-06-19T14:53:57;28.40;54.10
2042;DHT22;1026;51.460;7.252;2023-06-19T14:56:23;28.50;53.90
2042;DHT22;1026;51.460;7.252;2023-06-19T14:58:48;28.50;53.80
2042;DHT22;1026;51.460;7.252;2023-06-19T15:01:14;28.60;53.30
2042;DHT22;1026;51.460;7.252;2023-06-19T15:03:47;28.60;53.50
2042;DHT22;1026;51.460;7.252;2023-06-19T15:06:13;28.60;53.40
2042;DHT22;1026;51.460;7.252;2023-06-19T15:08:38;28.60;54.30
2042;DHT22;1026;51.460;7.252;2023-06-19T15:11:04;28.60;54.60
2042;DHT22;1026;51.460;7.252;2023-06-19T15:13:31;28.60;54.70
2042;DHT22;1026;51.460;7.252;2023-06-19T15:15:57;28.60;54.30
2042;DHT22;1026;51.460;7.252;2023-06-19T15:18:24;28.70;54.20
2042;DHT22;1026;51.460;7.252;2023-06-19T15:20:50;28.80;53.80
2042;DHT22;1026;51.460;7.252;2023-06-19T15:23:16;28.80;54.00
2042;DHT22;1026;51.460;7.252;2023-06-19T15:25:41;28.90;53.70
2042;DHT22;1026;51.460;7.252;2023-06-19T15:28:14;28.90;53.90
2042;DHT22;1026;51.460;7.252;2023-06-19T15:30:46;29.00;53.30
2042;DHT22;1026;51.460;7.252;2023-06-19T15:33:12;29.00;53.10
2042;DHT22;1026;51.460;7.252;2023-06-19T15:35:37;29.00;53.10
2042;DHT22;1026;51.460;7.252;2023-06-19T15:38:03;29.10;53.90
2042;DHT22;1026;51.460;7.252;2023-06-19T15:40:29;29.00;53.90
2042;DHT22;1026;51.460;7.252;2023-06-19T15:42:55;29.00;53.80
2042;DHT22;1026;51.460;7.252;2023-06-19T15:45:20;29.10;53.90
2042;DHT22;1026;51.460;7.252;2023-06-19T15:47:46;29.00;54.00
2042;DHT22;1026;51.460;7.252;2023-06-19T15:50:12;29.10;53.70
2042;DHT22;1026;51.460;7.252;2023-06-19T15:52:38;29.10;53.70
2042;DHT22;1026;51.460;7.252;2023-06-19T15:55:03;29.00;53.60
2042;DHT22;1026;51.460;7.252;2023-06-19T15:57:30;29.00;53.80
2042;DHT22;1026;51.460;7.252;2023-06-19T15:59:56;29.00;54.00
2042;DHT22;1026;51.460;7.252;2023-06-19T16:02:21;29.00;52.50